createdAt,value
2022-11-27T00:00:14.053Z,67.00
2022-11-27T00:03:32.433Z,68.10
2022-11-27T00:06:32.772Z,68.30
2022-11-27T00:09:31.298Z,68.40
2022-11-27T00:12:31.286Z,68.30
2022-11-27T00:15:29.886Z,68.30
2022-11-27T00:18:28.645Z,68.30
2022-11-27T00:21:29.391Z,68.20
2022-11-27T00:24:28.517Z,68.20
2022-11-27T00:27:27.141Z,68.30
2022-11-27T00:30:26.094Z,68.40
2022-11-27T00:33:24.723Z,68.50
2022-11-27T00:36:23.876Z,68.50
2022-11-27T00:39:22.596Z,68.50
2022-11-27T00:42:21.327Z,68.50
2022-11-27T00:45:19.968Z,68.40
2022-11-27T00:48:18.847Z,68.40
2022-11-27T00:51:20.471Z,68.40
2022-11-27T00:54:22.586Z,68.40
2022-11-27T00:57:21.115Z,68.30
2022-11-27T01:00:20.248Z,68.30
2022-11-27T01:03:18.665Z,68.30
2022-11-27T01:06:19.613Z,68.20
2022-11-27T01:09:18.782Z,68.10
2022-11-27T01:12:17.476Z,68.00
2022-11-27T01:15:16.278Z,67.90
2022-11-27T01:18:15.020Z,67.90
2022-11-27T01:21:14.394Z,67.80
2022-11-27T01:24:15.183Z,67.80
2022-11-27T01:27:13.496Z,67.70
2022-11-27T01:30:12.696Z,67.70
2022-11-27T01:33:11.193Z,67.80
2022-11-27T01:36:11.380Z,67.90
2022-11-27T01:39:16.110Z,67.90
2022-11-27T01:42:15.167Z,67.90
2022-11-27T01:45:17.257Z,67.90
2022-11-27T01:48:16.013Z,68.00
2022-11-27T01:51:14.725Z,68.00
2022-11-27T01:54:15.483Z,68.00
2022-11-27T01:57:21.649Z,68.00
2022-11-27T02:00:20.477Z,68.00
2022-11-27T02:03:18.957Z,68.00
2022-11-27T02:06:17.813Z,68.00
2022-11-27T02:09:16.372Z,68.00
2022-11-27T02:12:26.483Z,68.00
2022-11-27T02:15:46.024Z,68.60
2022-11-27T02:18:55.725Z,68.10
2022-11-27T02:22:04.552Z,68.10
2022-11-27T02:25:38.398Z,68.00
2022-11-27T02:29:00.861Z,68.00
2022-11-27T02:32:08.948Z,68.00
2022-11-27T02:35:17.910Z,67.90
2022-11-27T02:38:24.430Z,68.00
2022-11-27T02:41:28.996Z,68.10
2022-11-27T02:44:32.809Z,68.00
2022-11-27T02:47:31.724Z,67.90
2022-11-27T02:50:32.712Z,67.60
2022-11-27T02:53:38.348Z,67.60
2022-11-27T02:56:40.535Z,67.50
2022-11-27T02:59:39.797Z,67.50
2022-11-27T03:02:47.647Z,67.40
2022-11-27T03:05:47.280Z,67.30
2022-11-27T03:09:05.663Z,67.30
2022-11-27T03:12:07.827Z,67.10
2022-11-27T03:15:08.008Z,67.00
2022-11-27T03:18:25.276Z,66.90
2022-11-27T03:21:35.427Z,66.70
2022-11-27T03:24:36.897Z,66.50
2022-11-27T03:27:43.800Z,66.50
2022-11-27T03:30:42.483Z,66.40
2022-11-27T03:33:41.378Z,66.30
2022-11-27T03:36:39.757Z,66.20
2022-11-27T03:39:39.470Z,66.00
2022-11-27T03:42:56.588Z,66.00
2022-11-27T03:46:01.672Z,65.90
2022-11-27T03:49:08.183Z,66.00
2022-11-27T03:52:30.928Z,65.90
2022-11-27T03:55:55.974Z,65.70
2022-11-27T03:59:04.044Z,65.70
2022-11-27T04:02:02.452Z,65.70
2022-11-27T04:05:01.536Z,66.20
2022-11-27T04:08:00.038Z,67.40
2022-11-27T04:10:58.807Z,68.90
2022-11-27T04:13:57.239Z,68.40
2022-11-27T04:16:55.981Z,68.60
2022-11-27T04:19:54.405Z,68.60
2022-11-27T04:22:53.550Z,68.70
2022-11-27T04:25:53.126Z,68.70
2022-11-27T04:28:51.844Z,68.80
2022-11-27T04:31:50.345Z,68.80
2022-11-27T04:34:49.253Z,68.80
2022-11-27T04:37:47.748Z,68.80
2022-11-27T04:40:46.865Z,68.70
2022-11-27T04:43:45.483Z,68.70
2022-11-27T04:46:44.724Z,68.70
2022-11-27T04:49:43.388Z,68.70
2022-11-27T04:52:42.349Z,68.70
2022-11-27T04:55:40.852Z,68.60
2022-11-27T04:58:39.610Z,68.70
2022-11-27T05:01:38.308Z,68.60
2022-11-27T05:04:37.078Z,68.70
2022-11-27T05:07:35.569Z,68.60
2022-11-27T05:10:34.297Z,68.30
2022-11-27T05:13:32.995Z,68.10
2022-11-27T05:16:31.742Z,67.90
2022-11-27T05:19:32.250Z,67.80
2022-11-27T05:22:31.093Z,67.70
2022-11-27T05:25:29.655Z,67.60
2022-11-27T05:28:28.455Z,67.50
2022-11-27T05:31:27.121Z,67.30
2022-11-27T05:34:25.748Z,67.20
2022-11-27T05:37:24.112Z,67.10
2022-11-27T05:40:22.743Z,67.00
2022-11-27T05:43:21.059Z,66.90
2022-11-27T05:46:22.505Z,66.70
2022-11-27T05:49:20.953Z,66.60
2022-11-27T05:52:19.675Z,66.50
2022-11-27T05:55:18.279Z,66.60
2022-11-27T05:58:17.130Z,66.40
2022-11-27T06:01:17.218Z,66.30
2022-11-27T06:04:17.286Z,66.10
2022-11-27T06:07:15.759Z,66.00
2022-11-27T06:10:14.645Z,65.90
2022-11-27T06:13:13.160Z,65.90
2022-11-27T06:16:16.707Z,65.80
2022-11-27T06:19:15.125Z,65.70
2022-11-27T06:22:13.877Z,65.60
2022-11-27T06:25:12.618Z,65.50
2022-11-27T06:28:11.311Z,65.50
2022-11-27T06:31:17.566Z,65.40
2022-11-27T06:34:16.910Z,65.30
2022-11-27T06:37:15.538Z,65.10
2022-11-27T06:40:15.094Z,65.20
2022-11-27T06:43:13.395Z,65.10
2022-11-27T06:46:16.430Z,65.00
2022-11-27T06:49:15.140Z,64.90
2022-11-27T06:52:14.130Z,66.30
2022-11-27T06:55:12.524Z,66.60
2022-11-27T06:58:11.954Z,66.70
2022-11-27T07:01:14.603Z,66.80
2022-11-27T07:04:15.167Z,67.00
2022-11-27T07:07:13.551Z,67.20
2022-11-27T07:10:12.937Z,67.00
2022-11-27T07:13:11.394Z,66.90
2022-11-27T07:16:12.546Z,66.70
2022-11-27T07:19:11.929Z,66.60
2022-11-27T07:22:10.983Z,66.50
2022-11-27T07:25:10.139Z,66.30
2022-11-27T07:28:09.127Z,66.30
2022-11-27T07:31:07.713Z,66.30
2022-11-27T07:34:13.314Z,66.20
2022-11-27T07:37:13.427Z,66.10
2022-11-27T07:40:13.069Z,66.10
2022-11-27T07:43:13.441Z,66.00
2022-11-27T07:46:15.975Z,66.10
2022-11-27T07:49:14.326Z,66.00
2022-11-27T07:52:13.189Z,66.00
2022-11-27T07:55:11.529Z,66.10
2022-11-27T07:58:10.302Z,66.00
2022-11-27T08:01:11.627Z,66.00
2022-11-27T08:04:10.601Z,66.00
2022-11-27T08:07:09.096Z,66.00
2022-11-27T08:10:09.417Z,65.90
2022-11-27T08:13:08.064Z,65.90
2022-11-27T08:16:07.044Z,65.80
2022-11-27T08:19:05.441Z,65.80
2022-11-27T08:22:04.271Z,65.70
2022-11-27T08:25:02.718Z,65.70
2022-11-27T08:28:01.816Z,65.80
2022-11-27T08:31:02.197Z,65.70
2022-11-27T08:34:01.104Z,65.80
2022-11-27T08:36:59.468Z,65.80
2022-11-27T08:39:58.031Z,66.40
2022-11-27T08:42:56.369Z,65.90
2022-11-27T08:45:55.595Z,65.80
2022-11-27T08:48:54.042Z,65.80
2022-11-27T08:51:52.713Z,65.80
2022-11-27T08:54:57.204Z,65.70
2022-11-27T08:57:56.453Z,65.70
2022-11-27T09:00:54.791Z,65.70
2022-11-27T09:03:53.741Z,66.80
2022-11-27T09:06:57.936Z,70.30
2022-11-27T09:09:57.565Z,72.50
2022-11-27T09:12:56.908Z,73.60
2022-11-27T09:15:57.988Z,74.20
2022-11-27T09:18:56.691Z,74.60
2022-11-27T09:21:55.709Z,74.90
2022-11-27T09:24:54.152Z,75.10
2022-11-27T09:27:52.859Z,75.30
2022-11-27T09:30:57.406Z,75.40
2022-11-27T09:33:56.253Z,75.50
2022-11-27T09:36:54.626Z,75.40
2022-11-27T09:39:53.341Z,75.50
2022-11-27T09:43:05.102Z,75.40
2022-11-27T09:46:09.630Z,75.30
2022-11-27T09:49:15.154Z,75.30
2022-11-27T09:52:22.998Z,75.30
2022-11-27T09:55:27.272Z,75.10
2022-11-27T09:58:42.890Z,75.20
2022-11-27T10:01:47.616Z,75.20
2022-11-27T10:05:13.015Z,75.20
2022-11-27T10:08:22.263Z,75.30
2022-11-27T10:11:45.462Z,75.30
2022-11-27T10:15:05.093Z,75.90
2022-11-27T10:18:12.707Z,75.20
2022-11-27T10:21:23.247Z,75.20
2022-11-27T10:24:40.185Z,75.20
2022-11-27T10:28:04.743Z,75.00
2022-11-27T10:31:19.791Z,75.00
2022-11-27T10:34:49.326Z,75.00
2022-11-27T10:37:59.751Z,74.70
2022-11-27T10:41:34.406Z,74.60
2022-11-27T10:44:40.544Z,74.50
2022-11-27T10:47:41.337Z,74.50
2022-11-27T10:50:42.271Z,74.30
2022-11-27T10:53:43.670Z,74.30
2022-11-27T10:57:13.489Z,74.30
2022-11-27T11:00:19.021Z,74.40
2022-11-27T11:03:19.240Z,74.50
2022-11-27T11:06:24.661Z,74.40
2022-11-27T11:09:29.739Z,74.30
2022-11-27T11:12:28.165Z,74.20
2022-11-27T11:15:27.081Z,74.20
2022-11-27T11:18:28.845Z,74.10
2022-11-27T11:21:41.551Z,74.10
2022-11-27T11:24:43.366Z,74.10
2022-11-27T11:27:45.450Z,74.00
2022-11-27T11:30:44.346Z,73.90
2022-11-27T11:34:01.330Z,73.70
2022-11-27T11:37:06.191Z,73.60
2022-11-27T11:40:22.865Z,73.40
2022-11-27T11:43:31.148Z,73.30
2022-11-27T11:46:33.232Z,73.30
2022-11-27T11:49:35.273Z,73.10
2022-11-27T11:52:51.967Z,73.10
2022-11-27T11:56:06.573Z,73.00
2022-11-27T11:59:18.506Z,73.00
2022-11-27T12:02:46.386Z,72.80
2022-11-27T12:06:17.978Z,72.70
2022-11-27T12:09:37.642Z,72.50
2022-11-27T12:12:57.764Z,72.40
2022-11-27T12:16:08.133Z,72.30
2022-11-27T12:19:29.203Z,72.10
2022-11-27T12:22:52.055Z,72.10
2022-11-27T12:26:14.595Z,72.10
2022-11-27T12:29:36.776Z,72.00
2022-11-27T12:33:06.295Z,72.30
2022-11-27T12:36:23.663Z,72.50
2022-11-27T12:39:33.412Z,73.20
2022-11-27T12:42:48.724Z,73.90
2022-11-27T12:45:54.750Z,74.70
2022-11-27T12:48:59.856Z,75.20
2022-11-27T12:52:10.112Z,75.70
2022-11-27T12:55:26.003Z,76.20
2022-11-27T12:58:32.356Z,76.90
2022-11-27T13:01:36.135Z,77.10
2022-11-27T13:04:43.677Z,76.90
2022-11-27T13:07:50.933Z,76.90
2022-11-27T13:10:59.562Z,76.90
2022-11-27T13:14:05.686Z,76.70
2022-11-27T13:17:10.117Z,76.70
2022-11-27T13:20:18.273Z,76.10
2022-11-27T13:23:17.100Z,75.30
2022-11-27T13:26:26.381Z,74.70
2022-11-27T13:29:45.480Z,74.10
2022-11-27T13:32:52.134Z,73.70
2022-11-27T13:35:51.188Z,73.30
2022-11-27T13:39:00.463Z,73.10
2022-11-27T13:42:23.029Z,72.60
2022-11-27T13:45:26.969Z,72.30
2022-11-27T13:48:37.402Z,72.30
2022-11-27T13:51:38.124Z,72.70
2022-11-27T13:54:37.238Z,72.70
2022-11-27T13:57:35.621Z,72.70
2022-11-27T14:00:41.918Z,72.80
2022-11-27T14:03:41.029Z,72.70
2022-11-27T14:06:43.178Z,72.60
2022-11-27T14:09:47.828Z,72.40
2022-11-27T14:12:58.266Z,72.20
2022-11-27T14:16:05.324Z,72.10
2022-11-27T14:19:04.879Z,71.90
2022-11-27T14:22:16.198Z,71.80
2022-11-27T14:25:29.942Z,71.70
2022-11-27T14:28:28.798Z,71.60
2022-11-27T14:31:32.573Z,71.40
2022-11-27T14:34:33.196Z,71.30
2022-11-27T14:37:31.837Z,71.20
2022-11-27T14:40:30.700Z,71.10
2022-11-27T14:43:29.764Z,70.90
2022-11-27T14:46:28.579Z,70.60
2022-11-27T14:49:30.657Z,70.60
2022-11-27T14:52:29.743Z,70.50
2022-11-27T14:55:34.413Z,70.40
2022-11-27T14:58:33.638Z,70.30
2022-11-27T15:01:36.171Z,70.20
2022-11-27T15:04:37.188Z,70.10
2022-11-27T15:07:45.204Z,70.10
2022-11-27T15:10:45.899Z,70.00
2022-11-27T15:13:53.909Z,69.80
2022-11-27T15:16:53.645Z,69.70
2022-11-27T15:19:52.780Z,69.70
2022-11-27T15:22:54.081Z,69.40
2022-11-27T15:26:12.581Z,69.50
2022-11-27T15:29:35.458Z,69.10
2022-11-27T15:32:51.800Z,69.10
2022-11-27T15:35:53.880Z,68.80
2022-11-27T15:38:53.460Z,68.80
2022-11-27T15:41:54.205Z,68.70
2022-11-27T15:44:56.094Z,68.60
2022-11-27T15:48:00.535Z,68.50
2022-11-27T15:50:59.339Z,68.60
2022-11-27T15:53:57.739Z,68.50
2022-11-27T15:56:56.644Z,68.30
2022-11-27T15:59:55.048Z,68.30
2022-11-27T16:02:54.615Z,68.20
2022-11-27T16:05:53.071Z,68.20
2022-11-27T16:09:00.944Z,68.00
2022-11-27T16:11:59.534Z,68.00
2022-11-27T16:14:58.460Z,67.90
2022-11-27T16:17:57.080Z,67.90
2022-11-27T16:20:55.956Z,67.70
2022-11-27T16:23:59.691Z,67.70
2022-11-27T16:26:58.675Z,67.80
2022-11-27T16:29:58.262Z,67.80
2022-11-27T16:32:57.452Z,67.70
2022-11-27T16:35:57.369Z,67.40
2022-11-27T16:38:57.198Z,67.50
2022-11-27T16:41:56.265Z,67.60
2022-11-27T16:44:55.712Z,67.20
2022-11-27T16:47:54.327Z,67.30
2022-11-27T16:51:05.152Z,67.30
2022-11-27T16:54:08.961Z,67.20
2022-11-27T16:57:11.814Z,67.20
2022-11-27T17:00:13.050Z,67.10
2022-11-27T17:03:13.298Z,67.20
2022-11-27T17:06:23.341Z,67.20
2022-11-27T17:09:25.326Z,67.10
2022-11-27T17:12:24.835Z,67.00
2022-11-27T17:15:25.012Z,67.00
2022-11-27T17:18:24.105Z,67.00
2022-11-27T17:21:28.322Z,66.80
2022-11-27T17:24:30.189Z,66.80
2022-11-27T17:27:30.426Z,66.70
2022-11-27T17:30:30.586Z,66.50
2022-11-27T17:33:33.933Z,66.50
2022-11-27T17:36:37.466Z,66.50
2022-11-27T17:39:40.226Z,66.40
2022-11-27T17:42:39.710Z,66.50
2022-11-27T17:45:44.479Z,66.40
2022-11-27T17:48:44.490Z,66.40
2022-11-27T17:51:44.645Z,66.10
2022-11-27T17:54:44.853Z,66.10
2022-11-27T17:57:44.339Z,66.20
2022-11-27T18:00:45.943Z,66.10
2022-11-27T18:03:47.529Z,66.20
2022-11-27T18:06:46.546Z,66.10
2022-11-27T18:09:51.278Z,65.90
2022-11-27T18:12:51.276Z,66.00
2022-11-27T18:24:51.305Z,65.70
2022-11-27T18:27:49.953Z,65.70
2022-11-27T18:30:49.374Z,65.80
2022-11-27T18:33:48.751Z,65.60
2022-11-27T18:36:48.006Z,65.50
2022-11-27T18:39:48.278Z,65.60
2022-11-27T18:42:48.931Z,65.30
2022-11-27T18:45:47.783Z,65.40
2022-11-27T18:48:49.347Z,65.30
2022-11-27T18:51:49.928Z,65.20
2022-11-27T18:54:49.788Z,65.20
2022-11-27T18:57:49.265Z,65.00
2022-11-27T19:00:49.174Z,65.30
2022-11-27T19:03:48.451Z,65.30
2022-11-27T19:06:48.353Z,65.20
2022-11-27T19:09:47.077Z,65.10
2022-11-27T19:12:46.452Z,65.20
2022-11-27T19:15:47.250Z,65.20
2022-11-27T19:18:47.049Z,65.10
2022-11-27T19:21:46.001Z,65.10
2022-11-27T19:24:46.034Z,65.20
2022-11-27T19:27:45.112Z,65.00
2022-11-27T19:30:45.529Z,65.10
2022-11-27T19:33:45.947Z,65.00
2022-11-27T19:36:45.145Z,65.10
2022-11-27T19:39:44.261Z,65.00
2022-11-27T19:42:43.540Z,64.80
2022-11-27T19:46:19.654Z,65.00
2022-11-27T19:49:20.141Z,64.80
2022-11-27T19:52:18.667Z,65.00
2022-11-27T19:55:17.835Z,64.80
2022-11-27T19:58:16.636Z,64.90
2022-11-27T20:01:18.869Z,64.80
2022-11-27T20:04:17.651Z,64.80
2022-11-27T20:07:16.741Z,64.80
2022-11-27T20:10:16.033Z,64.70
2022-11-27T20:13:14.923Z,64.70
2022-11-27T20:16:15.825Z,64.80
2022-11-27T20:19:14.858Z,64.70
2022-11-27T20:22:13.145Z,64.60
2022-11-27T20:25:19.421Z,64.50
2022-11-27T20:28:18.759Z,64.30
2022-11-27T20:31:24.486Z,64.40
2022-11-27T20:34:23.339Z,64.40
2022-11-27T20:37:22.366Z,64.60
2022-11-27T20:40:23.000Z,64.30
2022-11-27T20:43:21.991Z,64.30
2022-11-27T20:46:20.629Z,64.40
2022-11-27T20:49:21.361Z,64.20
2022-11-27T20:52:19.938Z,64.10
2022-11-27T20:55:18.853Z,64.10
2022-11-27T20:58:17.296Z,64.10
2022-11-27T21:01:19.069Z,64.20
2022-11-27T21:04:26.006Z,64.10
2022-11-27T21:07:24.916Z,64.00
2022-11-27T21:10:25.300Z,64.10
2022-11-27T21:13:24.200Z,64.00
2022-11-27T21:16:24.280Z,64.00
2022-11-27T21:19:25.897Z,64.00
2022-11-27T21:22:24.615Z,64.00
2022-11-27T21:25:25.789Z,64.00
2022-11-27T21:28:24.437Z,64.10
2022-11-27T21:31:26.272Z,64.40
2022-11-27T21:34:25.697Z,64.80
2022-11-27T21:37:25.335Z,65.00
2022-11-27T21:40:23.784Z,65.10
2022-11-27T21:43:22.970Z,65.00
2022-11-27T21:46:24.343Z,64.90
2022-11-27T21:49:23.322Z,64.80
2022-11-27T21:52:21.896Z,64.80
2022-11-27T21:55:21.388Z,64.80
2022-11-27T21:58:19.641Z,64.80
2022-11-27T22:01:22.066Z,64.70
2022-11-27T22:04:20.679Z,64.60
2022-11-27T22:07:22.378Z,64.40
2022-11-27T22:10:21.891Z,64.40
2022-11-27T22:13:21.037Z,64.40
2022-11-27T22:16:22.346Z,64.00
2022-11-27T22:19:21.276Z,63.90
2022-11-27T22:22:19.548Z,63.90
2022-11-27T22:25:18.660Z,63.70
2022-11-27T22:28:16.906Z,63.60
2022-11-27T22:31:18.391Z,63.50
2022-11-27T22:34:17.810Z,63.50
2022-11-27T22:37:16.927Z,63.40
2022-11-27T22:40:16.600Z,63.40
2022-11-27T22:43:15.868Z,63.30
2022-11-27T22:46:18.312Z,63.30
2022-11-27T22:49:18.644Z,63.60
2022-11-27T22:52:16.985Z,63.70
2022-11-27T22:55:16.602Z,63.70
2022-11-27T22:58:15.065Z,63.60
2022-11-27T23:01:17.976Z,63.70
2022-11-27T23:04:16.998Z,63.60
2022-11-27T23:07:18.734Z,63.80
2022-11-27T23:10:19.388Z,63.80
2022-11-27T23:13:19.196Z,63.80
2022-11-27T23:16:18.032Z,63.80
2022-11-27T23:19:17.075Z,63.80
2022-11-27T23:22:15.424Z,63.80
2022-11-27T23:25:14.270Z,64.40
2022-11-27T23:28:12.703Z,66.00
2022-11-27T23:31:29.520Z,66.60
2022-11-27T23:34:29.458Z,67.40
2022-11-27T23:37:29.214Z,66.80
2022-11-27T23:40:27.711Z,66.70
2022-11-27T23:43:26.668Z,66.70
2022-11-27T23:46:28.377Z,66.60
2022-11-27T23:49:27.705Z,66.50
2022-11-27T23:52:26.018Z,66.50
2022-11-27T23:55:25.010Z,66.50
2022-11-27T23:58:23.911Z,66.40
